首页
METAR-TAF:

METAR-TAF

机场 :

图诺什纳机场

雅罗斯拉夫尔, 俄罗斯

纬度: 57-33-38N, 经度: 040-09-27E, 海拔: 87米

当前天气观测

该预报发布于41分钟前的01:00 UTC
风速6节,风向,在南转南东西南之间变化
温度 10°C
湿度 93%
气压 1018 hPa
能见度10公里或以上
阴天层高于3000英尺

METAR: UUDL 200100Z 19003MPS 150V220 9999 OVC030 10/09 Q1018 R23/290150 NOSIG RMK QFE755

时间: 04:41 (01:41 UTC)

预报

该预报发布于2小时和41分钟前的23:00 UTC
预报有效从20日的 00点(UTC)到 20日的 24点(UTC)
风速6节,风向
能見度: 8000
多云层高于2000英尺
短暂存在
从 20日的 00点(UTC)到 20日的 06点(UTC)
能見度: 3100
少量云层高于400英尺
多云层高于1100英尺
小毛毛雨, 轻雾

TAF: UUDL 192300Z 2000/2024 18003MPS 8000 BKN020 TEMPO 2000/2006 3100 -DZ BR FEW004 BKN011

超过4000个机场的气象观测和天气预报(METAR&TAF报告)。

可查询的气象台以黄色和红色小点在地图上表示。

将鼠标移到小点上方,可查看气象台名称。

然后点击查看天气观测和预报。

如需切换地图:点击带黑十字的绿色按钮放大地图;点击带横线的绿色按钮缩小地图;或者点击绿色箭头查看邻近地区的地图。


METAR-TAF: